sensor_id;sensor_type;location;lat;lon;timestamp;P1;durP1;ratioP1;P2;durP2;ratioP2
16115;SDS011;8162;47.104;15.432;2023-02-07T00:00:59;20.43;;;13.13;;
16115;SDS011;8162;47.104;15.432;2023-02-07T00:03:59;22.80;;;13.53;;
16115;SDS011;8162;47.104;15.432;2023-02-07T00:07:00;19.53;;;13.00;;
16115;SDS011;8162;47.104;15.432;2023-02-07T00:10:01;24.13;;;13.43;;
16115;SDS011;8162;47.104;15.432;2023-02-07T00:13:02;21.07;;;12.40;;
16115;SDS011;8162;47.104;15.432;2023-02-07T00:16:03;21.63;;;13.60;;
16115;SDS011;8162;47.104;15.432;2023-02-07T00:19:05;19.53;;;12.90;;
16115;SDS011;8162;47.104;15.432;2023-02-07T00:22:06;18.87;;;12.57;;
16115;SDS011;8162;47.104;15.432;2023-02-07T00:25:07;18.90;;;12.80;;
16115;SDS011;8162;47.104;15.432;2023-02-07T00:28:07;20.83;;;12.73;;
16115;SDS011;8162;47.104;15.432;2023-02-07T00:31:10;18.47;;;12.30;;
16115;SDS011;8162;47.104;15.432;2023-02-07T00:34:18;22.80;;;13.80;;
16115;SDS011;8162;47.104;15.432;2023-02-07T00:37:19;19.47;;;13.30;;
16115;SDS011;8162;47.104;15.432;2023-02-07T00:40:19;20.93;;;13.10;;
16115;SDS011;8162;47.104;15.432;2023-02-07T00:43:20;21.17;;;12.80;;
16115;SDS011;8162;47.104;15.432;2023-02-07T00:46:21;20.80;;;13.63;;
16115;SDS011;8162;47.104;15.432;2023-02-07T00:49:23;20.43;;;13.27;;
16115;SDS011;8162;47.104;15.432;2023-02-07T00:52:24;19.93;;;12.97;;
16115;SDS011;8162;47.104;15.432;2023-02-07T00:55:24;22.73;;;13.30;;
16115;SDS011;8162;47.104;15.432;2023-02-07T00:58:25;23.10;;;15.20;;
16115;SDS011;8162;47.104;15.432;2023-02-07T01:01:26;20.53;;;13.57;;
16115;SDS011;8162;47.104;15.432;2023-02-07T01:04:27;23.37;;;14.00;;
16115;SDS011;8162;47.104;15.432;2023-02-07T01:07:28;23.70;;;14.83;;
16115;SDS011;8162;47.104;15.432;2023-02-07T01:10:28;22.33;;;13.87;;
16115;SDS011;8162;47.104;15.432;2023-02-07T01:13:29;22.87;;;13.27;;
16115;SDS011;8162;47.104;15.432;2023-02-07T01:16:32;19.50;;;13.70;;
16115;SDS011;8162;47.104;15.432;2023-02-07T01:19:34;21.07;;;13.67;;
16115;SDS011;8162;47.104;15.432;2023-02-07T01:22:35;23.97;;;14.43;;
16115;SDS011;8162;47.104;15.432;2023-02-07T01:25:37;19.90;;;14.37;;
16115;SDS011;8162;47.104;15.432;2023-02-07T01:28:38;20.80;;;13.43;;
16115;SDS011;8162;47.104;15.432;2023-02-07T01:31:39;20.53;;;12.97;;
16115;SDS011;8162;47.104;15.432;2023-02-07T01:34:41;20.27;;;13.33;;
16115;SDS011;8162;47.104;15.432;2023-02-07T01:37:41;19.57;;;13.33;;
16115;SDS011;8162;47.104;15.432;2023-02-07T01:40:42;23.00;;;13.73;;
16115;SDS011;8162;47.104;15.432;2023-02-07T01:47:22;25.17;;;13.93;;
16115;SDS011;8162;47.104;15.432;2023-02-07T01:50:23;18.07;;;12.40;;
16115;SDS011;8162;47.104;15.432;2023-02-07T01:53:25;21.10;;;13.40;;
16115;SDS011;8162;47.104;15.432;2023-02-07T01:56:28;22.37;;;13.93;;
16115;SDS011;8162;47.104;15.432;2023-02-07T01:59:29;22.47;;;14.23;;
16115;SDS011;8162;47.104;15.432;2023-02-07T02:02:32;21.90;;;13.00;;
16115;SDS011;8162;47.104;15.432;2023-02-07T02:05:35;21.60;;;13.63;;
16115;SDS011;8162;47.104;15.432;2023-02-07T02:08:37;22.93;;;14.43;;
16115;SDS011;8162;47.104;15.432;2023-02-07T02:31:40;19.87;;;13.90;;
16115;SDS011;8162;47.104;15.432;2023-02-07T02:41:28;21.37;;;13.77;;
16115;SDS011;8162;47.104;15.432;2023-02-07T02:44:39;20.27;;;13.10;;
16115;SDS011;8162;47.104;15.432;2023-02-07T02:47:47;20.40;;;14.53;;
16115;SDS011;8162;47.104;15.432;2023-02-07T02:50:49;23.60;;;15.03;;
16115;SDS011;8162;47.104;15.432;2023-02-07T02:53:56;19.87;;;12.77;;
16115;SDS011;8162;47.104;15.432;2023-02-07T03:00:23;21.53;;;13.03;;
16115;SDS011;8162;47.104;15.432;2023-02-07T03:20:56;22.00;;;14.30;;
16115;SDS011;8162;47.104;15.432;2023-02-07T03:24:07;25.07;;;14.70;;
16115;SDS011;8162;47.104;15.432;2023-02-07T03:27:19;20.93;;;14.20;;
16115;SDS011;8162;47.104;15.432;2023-02-07T03:30:22;22.87;;;13.47;;
16115;SDS011;8162;47.104;15.432;2023-02-07T03:33:27;20.53;;;14.50;;
16115;SDS011;8162;47.104;15.432;2023-02-07T03:36:33;18.47;;;12.73;;
16115;SDS011;8162;47.104;15.432;2023-02-07T03:39:55;19.97;;;13.23;;
16115;SDS011;8162;47.104;15.432;2023-02-07T03:43:03;19.07;;;13.20;;
16115;SDS011;8162;47.104;15.432;2023-02-07T03:46:26;19.87;;;14.23;;
16115;SDS011;8162;47.104;15.432;2023-02-07T03:49:34;24.13;;;14.23;;
16115;SDS011;8162;47.104;15.432;2023-02-07T03:52:35;21.47;;;14.17;;
16115;SDS011;8162;47.104;15.432;2023-02-07T03:55:36;18.57;;;12.80;;
16115;SDS011;8162;47.104;15.432;2023-02-07T03:58:36;20.57;;;14.23;;
16115;SDS011;8162;47.104;15.432;2023-02-07T04:01:37;21.47;;;13.27;;
16115;SDS011;8162;47.104;15.432;2023-02-07T04:04:41;22.53;;;13.47;;
16115;SDS011;8162;47.104;15.432;2023-02-07T04:07:41;19.73;;;12.47;;
16115;SDS011;8162;47.104;15.432;2023-02-07T04:10:42;22.57;;;12.93;;
16115;SDS011;8162;47.104;15.432;2023-02-07T04:13:43;19.73;;;13.20;;
16115;SDS011;8162;47.104;15.432;2023-02-07T04:16:43;21.07;;;13.00;;
16115;SDS011;8162;47.104;15.432;2023-02-07T04:19:45;17.87;;;11.83;;
16115;SDS011;8162;47.104;15.432;2023-02-07T04:22:45;19.90;;;12.27;;
16115;SDS011;8162;47.104;15.432;2023-02-07T04:25:46;19.27;;;12.17;;
16115;SDS011;8162;47.104;15.432;2023-02-07T04:28:47;21.50;;;12.83;;
16115;SDS011;8162;47.104;15.432;2023-02-07T04:31:47;24.93;;;13.73;;
16115;SDS011;8162;47.104;15.432;2023-02-07T04:34:48;17.60;;;11.87;;
16115;SDS011;8162;47.104;15.432;2023-02-07T04:37:49;18.20;;;11.83;;
16115;SDS011;8162;47.104;15.432;2023-02-07T04:40:50;18.80;;;11.23;;
16115;SDS011;8162;47.104;15.432;2023-02-07T04:43:51;18.33;;;11.73;;
16115;SDS011;8162;47.104;15.432;2023-02-07T04:46:51;17.13;;;11.17;;
16115;SDS011;8162;47.104;15.432;2023-02-07T04:49:52;17.10;;;10.60;;
16115;SDS011;8162;47.104;15.432;2023-02-07T04:52:53;18.70;;;11.33;;
16115;SDS011;8162;47.104;15.432;2023-02-07T04:55:53;14.43;;;10.40;;
16115;SDS011;8162;47.104;15.432;2023-02-07T04:58:54;15.80;;;10.10;;
16115;SDS011;8162;47.104;15.432;2023-02-07T05:01:55;13.27;;;10.17;;
16115;SDS011;8162;47.104;15.432;2023-02-07T05:04:55;16.77;;;10.50;;
16115;SDS011;8162;47.104;15.432;2023-02-07T05:07:56;15.73;;;10.60;;
16115;SDS011;8162;47.104;15.432;2023-02-07T05:10:58;16.97;;;11.37;;
16115;SDS011;8162;47.104;15.432;2023-02-07T05:13:59;20.47;;;11.47;;
16115;SDS011;8162;47.104;15.432;2023-02-07T05:16:59;19.73;;;11.47;;
16115;SDS011;8162;47.104;15.432;2023-02-07T05:20:00;19.53;;;10.83;;
16115;SDS011;8162;47.104;15.432;2023-02-07T05:23:01;17.20;;;10.47;;
16115;SDS011;8162;47.104;15.432;2023-02-07T05:26:02;16.87;;;10.90;;
16115;SDS011;8162;47.104;15.432;2023-02-07T05:29:03;16.77;;;9.83;;
16115;SDS011;8162;47.104;15.432;2023-02-07T05:32:03;15.47;;;10.07;;
16115;SDS011;8162;47.104;15.432;2023-02-07T05:35:23;17.87;;;11.00;;
16115;SDS011;8162;47.104;15.432;2023-02-07T05:38:23;14.27;;;8.93;;
16115;SDS011;8162;47.104;15.432;2023-02-07T05:41:24;16.40;;;9.90;;
16115;SDS011;8162;47.104;15.432;2023-02-07T05:44:25;14.53;;;9.70;;
16115;SDS011;8162;47.104;15.432;2023-02-07T05:47:25;14.87;;;10.27;;
16115;SDS011;8162;47.104;15.432;2023-02-07T05:50:26;15.70;;;10.77;;
16115;SDS011;8162;47.104;15.432;2023-02-07T05:53:27;14.93;;;9.57;;
16115;SDS011;8162;47.104;15.432;2023-02-07T05:56:28;14.23;;;9.93;;
16115;SDS011;8162;47.104;15.432;2023-02-07T05:59:28;11.20;;;8.73;;
16115;SDS011;8162;47.104;15.432;2023-02-07T06:02:29;14.43;;;9.33;;
16115;SDS011;8162;47.104;15.432;2023-02-07T06:05:30;14.37;;;10.13;;
16115;SDS011;8162;47.104;15.432;2023-02-07T06:08:32;15.80;;;10.03;;
16115;SDS011;8162;47.104;15.432;2023-02-07T06:11:32;15.13;;;9.73;;
16115;SDS011;8162;47.104;15.432;2023-02-07T06:14:33;15.53;;;9.30;;
16115;SDS011;8162;47.104;15.432;2023-02-07T06:17:34;14.23;;;9.47;;
16115;SDS011;8162;47.104;15.432;2023-02-07T06:20:35;11.93;;;9.10;;
16115;SDS011;8162;47.104;15.432;2023-02-07T06:23:35;14.97;;;10.00;;
16115;SDS011;8162;47.104;15.432;2023-02-07T06:26:36;18.10;;;9.30;;
16115;SDS011;8162;47.104;15.432;2023-02-07T06:29:37;16.80;;;9.27;;
16115;SDS011;8162;47.104;15.432;2023-02-07T06:32:37;16.40;;;9.47;;
16115;SDS011;8162;47.104;15.432;2023-02-07T06:35:38;14.37;;;9.27;;
16115;SDS011;8162;47.104;15.432;2023-02-07T06:38:46;14.00;;;8.53;;
16115;SDS011;8162;47.104;15.432;2023-02-07T06:41:48;16.77;;;9.00;;
16115;SDS011;8162;47.104;15.432;2023-02-07T06:44:48;13.70;;;9.17;;
16115;SDS011;8162;47.104;15.432;2023-02-07T06:47:49;14.67;;;9.63;;
16115;SDS011;8162;47.104;15.432;2023-02-07T06:50:50;17.70;;;9.23;;
16115;SDS011;8162;47.104;15.432;2023-02-07T06:53:51;14.63;;;8.70;;
16115;SDS011;8162;47.104;15.432;2023-02-07T06:56:51;12.40;;;8.33;;
16115;SDS011;8162;47.104;15.432;2023-02-07T06:59:52;13.93;;;8.87;;
16115;SDS011;8162;47.104;15.432;2023-02-07T07:02:53;15.00;;;9.70;;
16115;SDS011;8162;47.104;15.432;2023-02-07T07:05:54;15.87;;;9.30;;
16115;SDS011;8162;47.104;15.432;2023-02-07T07:08:56;13.50;;;8.50;;
16115;SDS011;8162;47.104;15.432;2023-02-07T07:11:56;13.23;;;8.30;;
16115;SDS011;8162;47.104;15.432;2023-02-07T07:14:57;14.43;;;8.43;;
16115;SDS011;8162;47.104;15.432;2023-02-07T07:17:58;17.47;;;8.63;;
16115;SDS011;8162;47.104;15.432;2023-02-07T07:20:58;16.40;;;8.83;;
16115;SDS011;8162;47.104;15.432;2023-02-07T07:23:59;19.57;;;11.87;;
16115;SDS011;8162;47.104;15.432;2023-02-07T07:27:00;19.00;;;11.17;;
16115;SDS011;8162;47.104;15.432;2023-02-07T07:30:01;22.43;;;11.97;;
16115;SDS011;8162;47.104;15.432;2023-02-07T07:33:02;18.67;;;11.37;;
16115;SDS011;8162;47.104;15.432;2023-02-07T07:36:03;17.00;;;10.57;;
16115;SDS011;8162;47.104;15.432;2023-02-07T07:39:04;11.87;;;8.27;;
16115;SDS011;8162;47.104;15.432;2023-02-07T07:42:06;17.83;;;8.23;;
16115;SDS011;8162;47.104;15.432;2023-02-07T07:45:07;12.00;;;8.17;;
16115;SDS011;8162;47.104;15.432;2023-02-07T07:48:09;14.20;;;8.97;;
16115;SDS011;8162;47.104;15.432;2023-02-07T07:51:09;15.63;;;8.83;;
16115;SDS011;8162;47.104;15.432;2023-02-07T07:54:10;10.90;;;6.87;;
16115;SDS011;8162;47.104;15.432;2023-02-07T07:57:11;13.97;;;8.80;;
16115;SDS011;8162;47.104;15.432;2023-02-07T08:00:12;17.00;;;8.77;;
16115;SDS011;8162;47.104;15.432;2023-02-07T08:03:13;14.37;;;8.90;;
16115;SDS011;8162;47.104;15.432;2023-02-07T08:06:15;16.40;;;8.53;;
16115;SDS011;8162;47.104;15.432;2023-02-07T08:09:16;17.57;;;9.00;;
16115;SDS011;8162;47.104;15.432;2023-02-07T08:12:16;13.50;;;8.57;;
16115;SDS011;8162;47.104;15.432;2023-02-07T08:15:17;15.90;;;8.57;;
16115;SDS011;8162;47.104;15.432;2023-02-07T08:18:18;14.00;;;9.37;;
16115;SDS011;8162;47.104;15.432;2023-02-07T08:21:18;16.27;;;9.10;;
16115;SDS011;8162;47.104;15.432;2023-02-07T08:24:20;15.63;;;9.07;;
16115;SDS011;8162;47.104;15.432;2023-02-07T08:27:21;14.10;;;8.97;;
16115;SDS011;8162;47.104;15.432;2023-02-07T08:30:22;12.47;;;8.60;;
16115;SDS011;8162;47.104;15.432;2023-02-07T08:33:23;17.67;;;8.93;;
16115;SDS011;8162;47.104;15.432;2023-02-07T08:36:24;13.87;;;8.23;;
16115;SDS011;8162;47.104;15.432;2023-02-07T08:39:25;17.33;;;9.50;;
16115;SDS011;8162;47.104;15.432;2023-02-07T08:42:25;15.47;;;9.13;;
16115;SDS011;8162;47.104;15.432;2023-02-07T08:45:26;14.03;;;8.07;;
16115;SDS011;8162;47.104;15.432;2023-02-07T08:48:27;17.60;;;9.93;;
16115;SDS011;8162;47.104;15.432;2023-02-07T08:51:28;13.80;;;7.73;;
16115;SDS011;8162;47.104;15.432;2023-02-07T08:54:29;12.77;;;7.40;;
16115;SDS011;8162;47.104;15.432;2023-02-07T08:57:30;16.33;;;8.00;;
16115;SDS011;8162;47.104;15.432;2023-02-07T09:00:31;14.13;;;8.60;;
16115;SDS011;8162;47.104;15.432;2023-02-07T09:03:34;15.80;;;9.07;;
16115;SDS011;8162;47.104;15.432;2023-02-07T09:06:35;17.27;;;11.10;;
16115;SDS011;8162;47.104;15.432;2023-02-07T09:09:35;13.07;;;9.43;;
16115;SDS011;8162;47.104;15.432;2023-02-07T09:12:36;17.10;;;9.83;;
16115;SDS011;8162;47.104;15.432;2023-02-07T09:15:37;12.70;;;8.47;;
16115;SDS011;8162;47.104;15.432;2023-02-07T09:18:38;14.80;;;10.10;;
16115;SDS011;8162;47.104;15.432;2023-02-07T09:21:40;15.37;;;10.27;;
16115;SDS011;8162;47.104;15.432;2023-02-07T09:24:40;19.07;;;10.20;;
16115;SDS011;8162;47.104;15.432;2023-02-07T09:27:41;18.30;;;10.17;;
16115;SDS011;8162;47.104;15.432;2023-02-07T09:30:43;15.10;;;9.67;;
16115;SDS011;8162;47.104;15.432;2023-02-07T09:33:44;16.17;;;10.73;;
16115;SDS011;8162;47.104;15.432;2023-02-07T09:36:45;12.10;;;8.10;;
16115;SDS011;8162;47.104;15.432;2023-02-07T09:39:46;22.20;;;10.87;;
16115;SDS011;8162;47.104;15.432;2023-02-07T09:42:57;17.53;;;9.90;;
16115;SDS011;8162;47.104;15.432;2023-02-07T09:46:23;14.47;;;9.93;;
16115;SDS011;8162;47.104;15.432;2023-02-07T09:49:37;14.83;;;9.30;;
16115;SDS011;8162;47.104;15.432;2023-02-07T09:52:48;14.50;;;9.73;;
16115;SDS011;8162;47.104;15.432;2023-02-07T09:55:59;15.93;;;10.20;;
16115;SDS011;8162;47.104;15.432;2023-02-07T09:59:03;14.67;;;9.10;;
16115;SDS011;8162;47.104;15.432;2023-02-07T10:02:37;15.10;;;8.77;;
16115;SDS011;8162;47.104;15.432;2023-02-07T10:05:55;10.60;;;8.00;;
16115;SDS011;8162;47.104;15.432;2023-02-07T10:08:59;13.37;;;8.30;;
16115;SDS011;8162;47.104;15.432;2023-02-07T10:22:17;10.47;;;7.30;;
16115;SDS011;8162;47.104;15.432;2023-02-07T10:25:39;11.80;;;8.20;;
16115;SDS011;8162;47.104;15.432;2023-02-07T10:32:21;11.57;;;6.63;;
16115;SDS011;8162;47.104;15.432;2023-02-07T10:35:30;11.97;;;8.37;;
16115;SDS011;8162;47.104;15.432;2023-02-07T10:38:37;10.37;;;7.70;;
16115;SDS011;8162;47.104;15.432;2023-02-07T10:41:53;15.23;;;8.63;;
16115;SDS011;8162;47.104;15.432;2023-02-07T10:44:56;15.70;;;8.57;;
16115;SDS011;8162;47.104;15.432;2023-02-07T10:47:57;12.30;;;8.47;;
16115;SDS011;8162;47.104;15.432;2023-02-07T10:50:58;12.40;;;8.80;;
16115;SDS011;8162;47.104;15.432;2023-02-07T10:54:06;14.63;;;8.80;;
16115;SDS011;8162;47.104;15.432;2023-02-07T10:57:13;12.27;;;7.87;;
16115;SDS011;8162;47.104;15.432;2023-02-07T11:00:22;16.57;;;10.03;;
16115;SDS011;8162;47.104;15.432;2023-02-07T11:03:31;15.43;;;9.10;;
16115;SDS011;8162;47.104;15.432;2023-02-07T11:06:33;14.77;;;9.87;;
16115;SDS011;8162;47.104;15.432;2023-02-07T11:09:33;17.33;;;10.10;;
16115;SDS011;8162;47.104;15.432;2023-02-07T11:12:37;16.23;;;10.13;;
16115;SDS011;8162;47.104;15.432;2023-02-07T11:19:13;15.13;;;10.57;;
16115;SDS011;8162;47.104;15.432;2023-02-07T11:22:19;14.50;;;10.57;;
16115;SDS011;8162;47.104;15.432;2023-02-07T11:25:29;19.87;;;10.87;;
16115;SDS011;8162;47.104;15.432;2023-02-07T11:28:34;17.93;;;10.80;;
16115;SDS011;8162;47.104;15.432;2023-02-07T11:31:35;22.90;;;11.63;;
16115;SDS011;8162;47.104;15.432;2023-02-07T11:34:44;15.77;;;11.43;;
16115;SDS011;8162;47.104;15.432;2023-02-07T11:37:46;17.00;;;9.93;;
16115;SDS011;8162;47.104;15.432;2023-02-07T11:40:59;15.37;;;10.03;;
16115;SDS011;8162;47.104;15.432;2023-02-07T11:44:15;15.17;;;9.77;;
16115;SDS011;8162;47.104;15.432;2023-02-07T11:47:21;13.83;;;9.17;;
16115;SDS011;8162;47.104;15.432;2023-02-07T11:56:44;15.23;;;10.40;;
16115;SDS011;8162;47.104;15.432;2023-02-07T12:06:23;13.93;;;9.27;;
16115;SDS011;8162;47.104;15.432;2023-02-07T12:15:51;15.87;;;9.77;;
16115;SDS011;8162;47.104;15.432;2023-02-07T12:22:22;14.43;;;9.83;;
16115;SDS011;8162;47.104;15.432;2023-02-07T12:25:31;14.20;;;9.93;;
16115;SDS011;8162;47.104;15.432;2023-02-07T12:32:14;14.90;;;9.37;;
16115;SDS011;8162;47.104;15.432;2023-02-07T12:39:33;14.63;;;9.70;;
16115;SDS011;8162;47.104;15.432;2023-02-07T12:42:53;13.50;;;9.77;;
16115;SDS011;8162;47.104;15.432;2023-02-07T13:11:17;12.93;;;10.50;;
16115;SDS011;8162;47.104;15.432;2023-02-07T13:24:31;16.00;;;9.80;;
16115;SDS011;8162;47.104;15.432;2023-02-07T13:27:34;12.67;;;9.83;;
16115;SDS011;8162;47.104;15.432;2023-02-07T13:30:36;15.67;;;9.60;;
16115;SDS011;8162;47.104;15.432;2023-02-07T13:33:40;12.97;;;9.53;;
16115;SDS011;8162;47.104;15.432;2023-02-07T13:36:44;11.30;;;8.10;;
16115;SDS011;8162;47.104;15.432;2023-02-07T13:53:40;12.40;;;9.33;;
16115;SDS011;8162;47.104;15.432;2023-02-07T13:56:57;12.60;;;9.47;;
16115;SDS011;8162;47.104;15.432;2023-02-07T14:00:22;11.20;;;9.60;;
16115;SDS011;8162;47.104;15.432;2023-02-07T14:03:29;10.83;;;9.37;;
16115;SDS011;8162;47.104;15.432;2023-02-07T14:07:17;12.47;;;9.80;;
16115;SDS011;8162;47.104;15.432;2023-02-07T14:09:52;12.47;;;8.83;;
16115;SDS011;8162;47.104;15.432;2023-02-07T14:12:55;11.67;;;8.60;;
16115;SDS011;8162;47.104;15.432;2023-02-07T14:19:07;11.90;;;9.40;;
16115;SDS011;8162;47.104;15.432;2023-02-07T14:28:33;11.53;;;8.63;;
16115;SDS011;8162;47.104;15.432;2023-02-07T14:31:35;10.47;;;9.33;;
16115;SDS011;8162;47.104;15.432;2023-02-07T14:38:24;12.20;;;9.57;;
16115;SDS011;8162;47.104;15.432;2023-02-07T14:41:38;10.97;;;9.70;;
16115;SDS011;8162;47.104;15.432;2023-02-07T14:44:41;11.20;;;9.40;;
16115;SDS011;8162;47.104;15.432;2023-02-07T14:47:47;12.90;;;10.43;;
16115;SDS011;8162;47.104;15.432;2023-02-07T14:50:50;10.83;;;9.10;;
16115;SDS011;8162;47.104;15.432;2023-02-07T14:54:02;11.90;;;9.87;;
16115;SDS011;8162;47.104;15.432;2023-02-07T15:00:48;10.97;;;9.60;;
16115;SDS011;8162;47.104;15.432;2023-02-07T15:04:03;12.43;;;9.20;;
16115;SDS011;8162;47.104;15.432;2023-02-07T15:07:09;13.53;;;9.53;;
16115;SDS011;8162;47.104;15.432;2023-02-07T15:13:28;11.93;;;9.10;;
16115;SDS011;8162;47.104;15.432;2023-02-07T15:16:40;11.03;;;8.53;;
16115;SDS011;8162;47.104;15.432;2023-02-07T15:19:40;10.87;;;8.37;;
16115;SDS011;8162;47.104;15.432;2023-02-07T15:22:41;11.70;;;9.47;;
16115;SDS011;8162;47.104;15.432;2023-02-07T15:25:46;12.30;;;8.77;;
16115;SDS011;8162;47.104;15.432;2023-02-07T15:28:47;9.43;;;7.67;;
16115;SDS011;8162;47.104;15.432;2023-02-07T15:31:56;9.73;;;8.50;;
16115;SDS011;8162;47.104;15.432;2023-02-07T15:34:58;9.90;;;8.83;;
16115;SDS011;8162;47.104;15.432;2023-02-07T15:38:31;12.23;;;9.83;;
16115;SDS011;8162;47.104;15.432;2023-02-07T15:41:32;11.70;;;8.80;;
16115;SDS011;8162;47.104;15.432;2023-02-07T15:44:43;11.87;;;9.10;;
16115;SDS011;8162;47.104;15.432;2023-02-07T15:47:59;14.37;;;9.50;;
16115;SDS011;8162;47.104;15.432;2023-02-07T15:51:08;10.60;;;8.67;;
16115;SDS011;8162;47.104;15.432;2023-02-07T15:54:11;12.20;;;8.60;;
16115;SDS011;8162;47.104;15.432;2023-02-07T15:57:26;12.43;;;9.60;;
16115;SDS011;8162;47.104;15.432;2023-02-07T16:00:37;10.50;;;7.80;;
16115;SDS011;8162;47.104;15.432;2023-02-07T16:03:43;11.47;;;8.87;;
16115;SDS011;8162;47.104;15.432;2023-02-07T16:06:57;10.57;;;8.23;;
16115;SDS011;8162;47.104;15.432;2023-02-07T16:13:23;12.10;;;9.90;;
16115;SDS011;8162;47.104;15.432;2023-02-07T16:16:25;14.07;;;9.20;;
16115;SDS011;8162;47.104;15.432;2023-02-07T16:19:28;12.87;;;10.20;;
16115;SDS011;8162;47.104;15.432;2023-02-07T16:22:30;10.80;;;8.43;;
16115;SDS011;8162;47.104;15.432;2023-02-07T16:25:32;12.87;;;10.30;;
16115;SDS011;8162;47.104;15.432;2023-02-07T16:28:34;12.93;;;9.73;;
16115;SDS011;8162;47.104;15.432;2023-02-07T16:31:35;13.80;;;9.47;;
16115;SDS011;8162;47.104;15.432;2023-02-07T16:34:36;15.30;;;9.50;;
16115;SDS011;8162;47.104;15.432;2023-02-07T16:37:37;13.57;;;9.07;;
16115;SDS011;8162;47.104;15.432;2023-02-07T16:40:37;12.07;;;8.87;;
16115;SDS011;8162;47.104;15.432;2023-02-07T16:43:38;13.20;;;9.17;;
16115;SDS011;8162;47.104;15.432;2023-02-07T16:46:41;12.00;;;8.27;;
16115;SDS011;8162;47.104;15.432;2023-02-07T16:49:42;12.43;;;10.33;;
16115;SDS011;8162;47.104;15.432;2023-02-07T16:52:45;14.20;;;9.97;;
16115;SDS011;8162;47.104;15.432;2023-02-07T16:55:48;16.40;;;10.23;;
16115;SDS011;8162;47.104;15.432;2023-02-07T16:58:49;14.93;;;10.30;;
16115;SDS011;8162;47.104;15.432;2023-02-07T17:01:50;17.50;;;11.23;;
16115;SDS011;8162;47.104;15.432;2023-02-07T17:04:53;19.70;;;12.10;;
16115;SDS011;8162;47.104;15.432;2023-02-07T17:07:53;15.60;;;10.63;;
16115;SDS011;8162;47.104;15.432;2023-02-07T17:11:01;16.20;;;11.50;;
16115;SDS011;8162;47.104;15.432;2023-02-07T17:14:04;16.97;;;11.70;;
16115;SDS011;8162;47.104;15.432;2023-02-07T17:17:05;18.63;;;11.53;;
16115;SDS011;8162;47.104;15.432;2023-02-07T17:20:23;14.40;;;10.87;;
16115;SDS011;8162;47.104;15.432;2023-02-07T17:23:24;15.83;;;9.27;;
16115;SDS011;8162;47.104;15.432;2023-02-07T17:26:27;16.83;;;11.67;;
16115;SDS011;8162;47.104;15.432;2023-02-07T17:29:31;14.03;;;11.20;;
16115;SDS011;8162;47.104;15.432;2023-02-07T17:32:33;18.30;;;11.63;;
16115;SDS011;8162;47.104;15.432;2023-02-07T17:35:36;18.03;;;11.80;;
16115;SDS011;8162;47.104;15.432;2023-02-07T17:38:39;18.03;;;12.23;;
16115;SDS011;8162;47.104;15.432;2023-02-07T17:41:41;20.57;;;13.00;;
16115;SDS011;8162;47.104;15.432;2023-02-07T17:44:44;19.27;;;12.97;;
16115;SDS011;8162;47.104;15.432;2023-02-07T17:47:45;17.83;;;12.60;;
16115;SDS011;8162;47.104;15.432;2023-02-07T17:50:46;17.93;;;11.47;;
16115;SDS011;8162;47.104;15.432;2023-02-07T17:53:47;19.47;;;12.53;;
16115;SDS011;8162;47.104;15.432;2023-02-07T17:56:49;16.83;;;12.30;;
16115;SDS011;8162;47.104;15.432;2023-02-07T17:59:50;23.60;;;14.53;;
16115;SDS011;8162;47.104;15.432;2023-02-07T18:02:51;22.33;;;14.93;;
16115;SDS011;8162;47.104;15.432;2023-02-07T18:05:52;24.03;;;14.63;;
16115;SDS011;8162;47.104;15.432;2023-02-07T18:08:56;20.60;;;13.43;;
16115;SDS011;8162;47.104;15.432;2023-02-07T18:11:58;22.90;;;14.53;;
16115;SDS011;8162;47.104;15.432;2023-02-07T18:15:03;22.43;;;14.43;;
16115;SDS011;8162;47.104;15.432;2023-02-07T18:18:04;16.07;;;12.73;;
16115;SDS011;8162;47.104;15.432;2023-02-07T18:21:06;19.97;;;14.97;;
16115;SDS011;8162;47.104;15.432;2023-02-07T18:24:07;21.37;;;14.43;;
16115;SDS011;8162;47.104;15.432;2023-02-07T18:27:09;22.33;;;14.10;;
16115;SDS011;8162;47.104;15.432;2023-02-07T18:30:12;18.43;;;14.07;;
16115;SDS011;8162;47.104;15.432;2023-02-07T18:33:14;18.10;;;13.13;;
16115;SDS011;8162;47.104;15.432;2023-02-07T18:36:18;22.67;;;14.50;;
16115;SDS011;8162;47.104;15.432;2023-02-07T18:39:22;23.57;;;14.23;;
16115;SDS011;8162;47.104;15.432;2023-02-07T18:42:24;19.40;;;13.03;;
16115;SDS011;8162;47.104;15.432;2023-02-07T18:45:25;21.27;;;14.53;;
16115;SDS011;8162;47.104;15.432;2023-02-07T18:48:26;21.23;;;12.70;;
16115;SDS011;8162;47.104;15.432;2023-02-07T18:51:28;22.03;;;14.13;;
16115;SDS011;8162;47.104;15.432;2023-02-07T18:54:29;21.27;;;14.67;;
16115;SDS011;8162;47.104;15.432;2023-02-07T18:57:30;21.23;;;14.10;;
16115;SDS011;8162;47.104;15.432;2023-02-07T19:00:31;22.17;;;14.77;;
16115;SDS011;8162;47.104;15.432;2023-02-07T19:03:32;22.00;;;15.43;;
16115;SDS011;8162;47.104;15.432;2023-02-07T19:06:35;24.00;;;15.60;;
16115;SDS011;8162;47.104;15.432;2023-02-07T19:09:37;21.63;;;15.43;;
16115;SDS011;8162;47.104;15.432;2023-02-07T19:12:43;21.40;;;14.63;;
16115;SDS011;8162;47.104;15.432;2023-02-07T19:15:45;17.53;;;11.83;;
16115;SDS011;8162;47.104;15.432;2023-02-07T19:18:46;19.37;;;12.00;;
16115;SDS011;8162;47.104;15.432;2023-02-07T19:21:48;17.97;;;11.73;;
16115;SDS011;8162;47.104;15.432;2023-02-07T19:24:50;20.03;;;12.47;;
16115;SDS011;8162;47.104;15.432;2023-02-07T19:27:51;18.10;;;12.67;;
16115;SDS011;8162;47.104;15.432;2023-02-07T19:30:52;23.27;;;13.13;;
16115;SDS011;8162;47.104;15.432;2023-02-07T19:33:54;25.03;;;14.20;;
16115;SDS011;8162;47.104;15.432;2023-02-07T19:36:57;24.67;;;13.67;;
16115;SDS011;8162;47.104;15.432;2023-02-07T19:39:58;23.33;;;13.87;;
16115;SDS011;8162;47.104;15.432;2023-02-07T19:43:00;23.90;;;14.67;;
16115;SDS011;8162;47.104;15.432;2023-02-07T19:46:01;19.87;;;14.03;;
16115;SDS011;8162;47.104;15.432;2023-02-07T19:49:02;22.83;;;13.70;;
16115;SDS011;8162;47.104;15.432;2023-02-07T19:52:04;18.53;;;12.63;;
16115;SDS011;8162;47.104;15.432;2023-02-07T19:55:05;19.33;;;12.50;;
16115;SDS011;8162;47.104;15.432;2023-02-07T19:58:07;20.67;;;14.13;;
16115;SDS011;8162;47.104;15.432;2023-02-07T20:01:08;25.47;;;15.80;;
16115;SDS011;8162;47.104;15.432;2023-02-07T20:04:10;22.83;;;14.73;;
16115;SDS011;8162;47.104;15.432;2023-02-07T20:07:12;20.97;;;13.77;;
16115;SDS011;8162;47.104;15.432;2023-02-07T20:10:13;21.37;;;13.70;;
16115;SDS011;8162;47.104;15.432;2023-02-07T20:13:14;22.40;;;13.80;;
16115;SDS011;8162;47.104;15.432;2023-02-07T20:16:17;18.83;;;12.13;;
16115;SDS011;8162;47.104;15.432;2023-02-07T20:19:21;24.47;;;14.63;;
16115;SDS011;8162;47.104;15.432;2023-02-07T20:22:22;23.60;;;14.27;;
16115;SDS011;8162;47.104;15.432;2023-02-07T20:25:23;25.40;;;17.10;;
16115;SDS011;8162;47.104;15.432;2023-02-07T20:28:26;27.00;;;16.00;;
16115;SDS011;8162;47.104;15.432;2023-02-07T20:31:29;27.37;;;16.53;;
16115;SDS011;8162;47.104;15.432;2023-02-07T20:34:30;30.50;;;19.40;;
16115;SDS011;8162;47.104;15.432;2023-02-07T20:37:32;29.23;;;18.73;;
16115;SDS011;8162;47.104;15.432;2023-02-07T20:40:34;29.63;;;17.90;;
16115;SDS011;8162;47.104;15.432;2023-02-07T20:43:35;42.90;;;25.50;;
16115;SDS011;8162;47.104;15.432;2023-02-07T20:46:37;34.53;;;20.97;;
16115;SDS011;8162;47.104;15.432;2023-02-07T20:49:40;35.07;;;22.07;;